CheckWX is a tool to help pilots better visualize weather data.  It is not intended as a substitute for an official pre-flight weather briefing.

07:13:06 UTC

CYDL METAR
Dease Lake Airport
Dease Lake, Canada
Current

13 mins ago

CYDL 260700Z AUTO VRB02KT 9SM SCT080 09/07 A3008 RMK SLP196
Observed
May-26 @ 07:00 UTC
Wind
  • Variable at 2 KTS
Visibility
9 SM
Flight Rules
VFR
Cloud Levels
  • Scattered at 8,000' AGL
Temperature
C / 48°F
Dewpoint
C / 45°F
Humidity
87%
Altimeter
30.08" Hg
Pressure
1018.62 hPa
Previous

1 hour ago

CYDL 260600Z AUTO 00000KT 9SM FEW080 09/08 A3007 RMK SLP192
Observed
May-26 @ 06:00 UTC
Visibility
9 SM
Flight Rules
VFR
Cloud Levels
  • Few at 8,000' AGL
Temperature
C / 48°F
Dewpoint
C / 46°F
Humidity
94%
Altimeter
30.07" Hg
Pressure
1018.32 hPa
Previous

2 hours ago

CYDL 260500Z AUTO 00000KT 9SM CLR 11/09 A3006 RMK SLP188
Observed
May-26 @ 05:00 UTC
Visibility
9 SM
Flight Rules
VFR
Cloud Levels
  • Clear skies
Temperature
11°C / 52°F
Dewpoint
C / 48°F
Humidity
88%
Altimeter
30.06" Hg
Pressure
1017.92 hPa